Time;durP1;ratioP1;P1;durP2;ratioP2;P2;SDS_P1;SDS_P2;PMS_P1;PMS_P2;Temp;Humidity;BMP_temperature;BMP_pressure;BME280_temperature;BME280_humidity;BME280_pressure;Samples;Min_cycle;Max_cycle;Signal;HPM_P1;HPM_P2
2022/05/25 00:02:04;;;;;;;6.77;5.70;;;12.40;99.90;;;;;;5019971;28;20288;-55
2022/05/25 00:04:32;;;;;;;8.43;5.80;;;12.40;99.90;;;;;;5021089;28;20262;-54
2022/05/25 00:06:59;;;;;;;5.93;5.33;;;12.30;99.90;;;;;;5017609;28;20742;-53
2022/05/25 00:09:26;;;;;;;6.30;5.27;;;12.40;99.90;;;;;;5020182;28;20352;-55
2022/05/25 00:11:53;;;;;;;6.63;5.90;;;12.30;99.90;;;;;;5020692;28;20252;-54
2022/05/25 00:14:20;;;;;;;10.63;6.20;;;12.20;99.90;;;;;;5013549;28;20294;-55
2022/05/25 00:16:47;;;;;;;8.23;6.40;;;12.20;99.90;;;;;;5016836;28;20236;-53
2022/05/25 00:22:00;;;;;;;7.17;5.67;;;12.00;99.90;;;;;;5016696;28;20219;-52
2022/05/25 00:24:27;;;;;;;8.37;5.93;;;12.10;99.90;;;;;;5019032;28;20296;-55
2022/05/25 00:26:54;;;;;;;6.77;5.97;;;12.00;99.90;;;;;;5020027;28;20208;-54
2022/05/25 00:29:20;;;;;;;8.03;6.57;;;12.20;99.90;;;;;;5018174;28;20233;-54
2022/05/25 00:31:47;;;;;;;6.47;5.57;;;12.20;99.90;;;;;;5016989;28;20219;-54
2022/05/25 00:34:14;;;;;;;9.77;5.23;;;12.00;99.90;;;;;;5014129;28;20258;-53
2022/05/25 00:36:41;;;;;;;6.93;5.77;;;12.00;99.90;;;;;;5015121;28;20299;-52
2022/05/25 00:39:08;;;;;;;11.53;6.43;;;12.20;99.90;;;;;;5018238;28;20244;-53
2022/05/25 00:41:35;;;;;;;7.27;6.30;;;12.20;99.90;;;;;;5005136;28;20603;-55
2022/05/25 00:44:03;;;;;;;6.47;5.60;;;12.20;99.90;;;;;;5022072;28;20202;-53
2022/05/25 00:46:32;;;;;;;8.27;5.90;;;12.30;99.90;;;;;;5020556;28;20228;-54
2022/05/25 00:49:04;;;;;;;8.70;6.20;;;12.20;99.90;;;;;;5019431;28;20267;-53
2022/05/25 00:51:36;;;;;;;6.93;6.20;;;12.30;99.90;;;;;;5022891;28;20228;-53
2022/05/25 00:54:08;;;;;;;6.90;6.20;;;12.30;99.90;;;;;;5024017;28;20700;-54
2022/05/25 00:56:39;;;;;;;7.73;5.90;;;12.20;99.90;;;;;;5018098;28;20207;-54
2022/05/25 00:59:18;;;;;;;7.70;6.07;;;12.20;99.90;;;;;;5022539;28;20636;-53
2022/05/25 01:01:45;;;;;;;8.57;6.33;;;12.20;99.90;;;;;;5020246;28;20230;-53
2022/05/25 01:04:13;;;;;;;6.87;6.13;;;12.10;99.90;;;;;;5020073;28;20243;-53
2022/05/25 01:06:48;;;;;;;7.83;6.23;;;12.00;99.90;;;;;;5017984;28;20294;-53
2022/05/25 01:09:42;;;;;;;6.43;5.80;;;12.10;99.90;;;;;;5020218;28;20267;-53
2022/05/25 01:12:23;;;;;;;6.60;6.00;;;12.10;99.90;;;;;;5022150;28;20197;-53
2022/05/25 01:15:02;;;;;;;9.53;6.13;;;12.10;99.90;;;;;;5021903;28;20559;-53
2022/05/25 01:17:54;;;;;;;7.77;6.27;;;12.10;99.90;;;;;;5018845;28;20281;-55
2022/05/25 01:20:36;;;;;;;9.23;6.37;;;12.10;99.90;;;;;;5020287;28;20718;-53
2022/05/25 01:23:30;;;;;;;12.37;7.00;;;12.10;99.90;;;;;;5016112;28;20232;-54
2022/05/25 01:26:00;;;;;;;8.30;6.47;;;12.10;99.90;;;;;;5018402;28;20236;-53
2022/05/25 01:29:03;;;;;;;6.77;5.77;;;12.10;99.90;;;;;;5017900;28;20243;-55
2022/05/25 01:31:38;;;;;;;8.27;5.97;;;12.10;99.90;;;;;;5015867;28;20537;-53
2022/05/25 01:34:33;;;;;;;9.87;6.40;;;11.90;99.90;;;;;;5016611;28;20606;-53
2022/05/25 01:37:06;;;;;;;7.97;5.97;;;11.90;99.90;;;;;;5016564;28;21573;-53
2022/05/25 01:39:39;;;;;;;6.87;6.17;;;11.90;99.90;;;;;;5021610;28;20227;-53
2022/05/25 01:42:16;;;;;;;7.67;6.20;;;11.90;99.90;;;;;;5020413;28;20493;-53
2022/05/25 01:44:56;;;;;;;6.70;6.00;;;11.80;99.90;;;;;;5020973;28;20240;-55
2022/05/25 01:47:27;;;;;;;6.87;6.17;;;11.70;99.90;;;;;;5018717;28;20279;-54
2022/05/25 01:50:14;;;;;;;10.97;6.83;;;11.80;99.90;;;;;;5015681;28;20236;-55
2022/05/25 01:52:48;;;;;;;7.47;6.20;;;11.70;99.90;;;;;;5019980;28;20301;-53
2022/05/25 01:55:23;;;;;;;6.87;6.17;;;11.70;99.90;;;;;;5020363;28;20332;-53
2022/05/25 01:57:55;;;;;;;6.70;6.00;;;11.80;99.90;;;;;;5023409;28;20594;-54
2022/05/25 02:00:38;;;;;;;8.23;6.80;;;11.70;99.90;;;;;;5019012;28;20300;-54
2022/05/25 02:06:13;;;;;;;8.60;6.37;;;11.80;99.90;;;;;;5019248;28;20710;-54
2022/05/25 02:08:55;;;;;;;6.00;5.40;;;11.80;99.90;;;;;;5019961;28;20607;-54
2022/05/25 02:11:30;;;;;;;9.67;6.57;;;11.70;99.90;;;;;;5015313;28;20305;-53
2022/05/25 02:14:27;;;;;;;6.47;5.87;;;11.70;99.90;;;;;;5022034;28;20238;-54
2022/05/25 02:17:03;;;;;;;6.40;5.63;;;11.80;99.90;;;;;;5020071;28;20925;-62
2022/05/25 02:19:36;;;;;;;6.63;5.93;;;11.80;99.90;;;;;;5021401;28;20331;-53
2022/05/25 02:22:19;;;;;;;9.20;5.80;;;11.80;99.90;;;;;;5019648;28;20647;-53
2022/05/25 02:25:03;;;;;;;7.63;6.23;;;11.80;99.90;;;;;;5020781;28;20239;-53
2022/05/25 02:27:35;;;;;;;10.37;6.03;;;11.70;99.90;;;;;;5017507;28;20203;-53
2022/05/25 02:30:08;;;;;;;10.23;6.40;;;11.60;99.90;;;;;;5017704;28;20254;-53
2022/05/25 02:32:43;;;;;;;8.10;5.97;;;11.60;99.90;;;;;;5018557;28;20217;-53
2022/05/25 02:35:12;;;;;;;9.67;6.87;;;11.70;99.90;;;;;;5017411;28;20226;-53
2022/05/25 02:37:40;;;;;;;10.30;6.57;;;11.60;99.90;;;;;;5023138;28;20276;-53
2022/05/25 02:40:08;;;;;;;8.63;6.17;;;11.50;99.90;;;;;;5016925;28;20254;-53
2022/05/25 02:42:40;;;;;;;7.97;7.13;;;11.50;99.90;;;;;;5021355;28;20635;-55
2022/05/25 02:45:09;;;;;;;9.33;6.90;;;11.40;99.90;;;;;;5019063;28;20650;-53
2022/05/25 02:47:35;;;;;;;8.00;6.90;;;11.30;99.90;;;;;;5018708;28;20231;-52
2022/05/25 02:50:02;;;;;;;9.23;7.10;;;11.20;99.90;;;;;;5015800;28;20303;-52
2022/05/25 02:52:29;;;;;;;8.63;7.23;;;11.20;99.90;;;;;;5020836;28;20263;-53
2022/05/25 02:54:56;;;;;;;9.13;7.17;;;11.10;99.90;;;;;;5019017;28;20608;-52
2022/05/25 02:57:23;;;;;;;7.90;7.10;;;11.20;99.90;;;;;;5018054;28;20288;-53
2022/05/25 02:59:50;;;;;;;9.00;7.27;;;11.20;99.90;;;;;;5020524;28;20208;-52
2022/05/25 03:02:18;;;;;;;9.87;8.07;;;11.10;99.90;;;;;;5018240;28;20203;-52
2022/05/25 03:04:45;;;;;;;9.90;7.63;;;11.00;99.90;;;;;;5019664;28;20876;-53
2022/05/25 03:07:12;;;;;;;12.63;7.70;;;11.00;99.90;;;;;;5019327;28;20217;-53
2022/05/25 03:09:39;;;;;;;8.80;7.20;;;11.20;99.90;;;;;;5016819;28;20242;-53
2022/05/25 03:12:08;;;;;;;10.67;7.57;;;11.10;99.90;;;;;;5018460;28;20576;-53
2022/05/25 03:14:35;;;;;;;9.17;8.17;;;11.00;99.90;;;;;;5020906;28;20233;-52
2022/05/25 03:17:12;;;;;;;8.23;7.33;;;11.00;99.90;;;;;;5022774;28;20617;-52
2022/05/25 03:19:41;;;;;;;9.57;7.67;;;11.20;99.90;;;;;;5015884;28;20318;-52
2022/05/25 03:22:08;;;;;;;11.47;7.30;;;11.30;99.90;;;;;;5018814;28;20791;-53
2022/05/25 03:24:35;;;;;;;8.03;7.23;;;11.20;99.90;;;;;;5014571;28;20288;-53
2022/05/25 03:27:02;;;;;;;9.13;7.00;;;11.10;99.90;;;;;;5019037;28;20293;-54
2022/05/25 03:29:30;;;;;;;8.87;7.70;;;11.10;99.90;;;;;;5018398;28;20544;-54
2022/05/25 03:31:58;;;;;;;8.63;7.27;;;11.00;99.90;;;;;;5023709;28;20654;-53
2022/05/25 03:34:26;;;;;;;14.10;7.53;;;11.10;99.90;;;;;;5014630;28;20754;-53
2022/05/25 03:36:56;;;;;;;9.87;7.20;;;11.10;99.90;;;;;;5015739;28;20289;-53
2022/05/25 03:39:26;;;;;;;8.27;6.70;;;11.00;99.90;;;;;;5017829;28;20581;-53
2022/05/25 03:42:14;;;;;;;11.13;7.13;;;11.00;99.90;;;;;;5015462;28;20291;-52
2022/05/25 03:44:40;;;;;;;8.03;6.80;;;11.00;99.90;;;;;;5021903;28;20231;-53
2022/05/25 03:47:07;;;;;;;11.03;7.03;;;11.00;99.90;;;;;;5019707;28;20280;-54
2022/05/25 03:49:34;;;;;;;14.93;7.67;;;10.90;99.90;;;;;;5018657;28;20267;-52
2022/05/25 03:52:01;;;;;;;10.40;6.97;;;10.80;99.90;;;;;;5013873;28;20206;-53
2022/05/25 03:54:28;;;;;;;7.13;6.43;;;10.80;99.90;;;;;;5023297;28;20664;-52
2022/05/25 03:56:55;;;;;;;9.70;6.87;;;10.90;99.90;;;;;;5019651;28;20628;-53
2022/05/25 03:59:22;;;;;;;8.53;6.83;;;10.90;99.90;;;;;;5019454;28;21372;-53
2022/05/25 04:01:51;;;;;;;9.33;6.43;;;10.80;99.90;;;;;;5016843;28;20669;-52
2022/05/25 04:04:18;;;;;;;7.53;6.20;;;10.90;99.90;;;;;;5021049;28;20257;-52
2022/05/25 04:06:45;;;;;;;9.33;6.47;;;10.80;99.90;;;;;;5018564;28;20225;-54
2022/05/25 04:09:12;;;;;;;9.40;6.63;;;10.80;99.90;;;;;;5018483;28;20283;-53
2022/05/25 04:11:42;;;;;;;8.07;6.53;;;10.80;99.90;;;;;;5014165;28;20316;-52
2022/05/25 04:14:09;;;;;;;8.70;6.57;;;10.70;99.90;;;;;;5022093;28;20206;-53
2022/05/25 04:16:36;;;;;;;8.30;6.20;;;10.90;99.90;;;;;;5025671;28;20685;-53
2022/05/25 04:19:03;;;;;;;9.33;6.10;;;10.80;99.90;;;;;;5023623;28;20202;-53
2022/05/25 04:21:30;;;;;;;9.23;6.37;;;10.90;99.90;;;;;;5019244;28;20292;-53
2022/05/25 04:23:57;;;;;;;8.03;5.70;;;10.80;99.90;;;;;;5020935;28;20240;-52
2022/05/25 04:26:23;;;;;;;10.13;6.00;;;10.70;99.90;;;;;;5018251;28;20611;-53
2022/05/25 04:28:50;;;;;;;7.43;5.47;;;10.80;99.90;;;;;;5022913;28;20201;-55
2022/05/25 04:31:17;;;;;;;9.87;5.33;;;10.80;99.90;;;;;;5020750;28;20296;-53
2022/05/25 04:33:45;;;;;;;8.20;5.77;;;10.80;99.90;;;;;;5020693;28;20533;-55
2022/05/25 04:36:11;;;;;;;7.47;5.60;;;10.80;99.90;;;;;;5025352;28;20197;-57
2022/05/25 04:38:38;;;;;;;7.70;5.83;;;10.90;99.90;;;;;;5023080;28;20244;-55
2022/05/25 04:41:05;;;;;;;7.70;5.10;;;10.80;99.90;;;;;;5019744;28;20739;-55
2022/05/25 04:43:32;;;;;;;8.30;5.40;;;10.90;99.90;;;;;;5024804;28;20232;-55
2022/05/25 04:46:01;;;;;;;9.60;5.60;;;11.00;99.90;;;;;;5019360;28;20246;-53
2022/05/25 04:48:28;;;;;;;6.57;5.00;;;11.10;99.90;;;;;;5023954;28;20246;-59
2022/05/25 04:50:58;;;;;;;9.97;5.57;;;11.00;99.90;;;;;;5018985;28;20251;-54
2022/05/25 04:53:25;;;;;;;7.67;5.33;;;10.90;99.90;;;;;;5022524;28;20340;-54
2022/05/25 04:58:41;;;;;;;11.23;5.20;;;11.00;99.90;;;;;;5022630;28;20624;-53
2022/05/25 05:01:10;;;;;;;8.57;4.97;;;11.10;99.90;;;;;;5016579;28;20221;-53
2022/05/25 05:03:38;;;;;;;8.63;4.80;;;11.20;99.90;;;;;;5020577;28;20198;-53
2022/05/25 05:06:08;;;;;;;5.43;4.47;;;11.20;99.90;;;;;;5023250;28;20647;-55
2022/05/25 05:08:35;;;;;;;5.53;4.33;;;11.30;99.90;;;;;;5019942;28;20256;-54
2022/05/25 05:11:16;;;;;;;11.47;4.87;;;11.20;99.90;;;;;;5019408;28;20748;-53
2022/05/25 05:13:44;;;;;;;5.70;4.27;;;11.30;99.90;;;;;;5018087;28;20423;-53
2022/05/25 05:16:16;;;;;;;10.90;4.83;;;11.40;99.90;;;;;;5023384;28;20195;-54
2022/05/25 05:18:43;;;;;;;7.83;4.83;;;11.30;99.90;;;;;;5032947;28;20199;-53
2022/05/25 05:21:10;;;;;;;10.20;5.17;;;11.40;99.90;;;;;;5019365;28;20210;-54
2022/05/25 05:23:39;;;;;;;7.17;4.33;;;11.60;99.90;;;;;;5012753;28;20603;-53
2022/05/25 05:26:06;;;;;;;7.03;4.80;;;11.60;99.90;;;;;;5016020;28;21966;-55
2022/05/25 05:28:37;;;;;;;7.80;4.40;;;11.60;99.90;;;;;;5012908;28;20695;-53
2022/05/25 05:31:04;;;;;;;5.70;4.40;;;11.80;99.90;;;;;;5013047;28;20306;-53
2022/05/25 05:33:31;;;;;;;5.87;4.57;;;11.70;99.90;;;;;;5023721;28;20728;-55
2022/05/25 05:36:10;;;;;;;6.70;4.77;;;11.90;99.90;;;;;;5018910;28;20578;-55
2022/05/25 05:38:50;;;;;;;10.17;4.77;;;12.00;99.90;;;;;;5010811;28;20235;-54
2022/05/25 05:41:21;;;;;;;8.13;4.87;;;12.00;99.90;;;;;;5015391;28;20291;-54
2022/05/25 05:43:48;;;;;;;9.37;4.13;;;12.00;99.90;;;;;;5018980;28;20244;-54
2022/05/25 05:46:16;;;;;;;9.17;4.30;;;11.90;99.90;;;;;;5011004;28;20207;-57
2022/05/25 05:48:43;;;;;;;6.90;4.60;;;11.90;99.90;;;;;;5020332;28;20663;-54
2022/05/25 05:51:11;;;;;;;7.27;4.87;;;12.10;99.90;;;;;;5011666;28;20224;-53
2022/05/25 05:53:40;;;;;;;11.07;5.10;;;12.10;99.90;;;;;;5012374;28;20505;-54
2022/05/25 05:56:08;;;;;;;7.53;4.70;;;12.20;99.90;;;;;;5015569;28;20966;-53
2022/05/25 05:58:34;;;;;;;8.40;4.77;;;12.30;99.90;;;;;;5018348;28;20207;-53
2022/05/25 06:01:01;;;;;;;7.53;5.10;;;12.40;99.90;;;;;;5006190;28;20299;-55
2022/05/25 06:03:29;;;;;;;10.37;5.80;;;12.40;99.90;;;;;;5016480;28;20197;-53
2022/05/25 06:05:56;;;;;;;9.43;5.90;;;12.40;99.90;;;;;;5012394;28;20251;-53
2022/05/25 06:08:23;;;;;;;11.67;5.53;;;12.50;99.90;;;;;;5016997;28;20254;-52
2022/05/25 06:10:50;;;;;;;9.87;6.23;;;12.60;99.90;;;;;;5009967;28;20239;-53
2022/05/25 06:13:17;;;;;;;8.77;5.50;;;12.50;99.90;;;;;;5011038;28;20204;-53
2022/05/25 06:21:22;;;;;;;10.23;6.63;;;12.80;99.90;;;;;;5012166;28;20210;-54
2022/05/25 06:23:49;;;;;;;11.03;6.43;;;12.90;99.90;;;;;;5013997;28;20328;-53
2022/05/25 06:26:17;;;;;;;15.27;8.20;;;12.80;99.90;;;;;;5002065;28;20297;-52
2022/05/25 06:28:44;;;;;;;12.80;6.80;;;12.70;99.90;;;;;;5015617;28;20678;-52
2022/05/25 06:31:12;;;;;;;13.80;7.07;;;12.60;99.90;;;;;;5016838;28;20217;-53
2022/05/25 06:33:39;;;;;;;11.33;7.77;;;12.90;99.90;;;;;;5017732;28;20296;-53
2022/05/25 06:36:13;;;;;;;15.57;8.17;;;12.80;99.90;;;;;;5010541;28;20198;-54
2022/05/25 06:38:40;;;;;;;13.57;9.83;;;12.80;99.90;;;;;;5006704;28;22398;-54
2022/05/25 06:41:07;;;;;;;18.63;11.30;;;12.80;99.90;;;;;;5015433;28;20331;-53
2022/05/25 06:43:33;;;;;;;17.77;11.10;;;12.70;99.90;;;;;;5018868;28;20347;-53
2022/05/25 06:46:01;;;;;;;14.17;10.60;;;12.90;99.90;;;;;;5013603;28;20208;-52
2022/05/25 06:48:31;;;;;;;17.23;12.50;;;12.90;99.90;;;;;;5016898;28;20211;-54
2022/05/25 06:51:07;;;;;;;21.50;16.07;;;13.00;99.90;;;;;;5016012;28;20255;-53
2022/05/25 06:53:34;;;;;;;21.63;17.43;;;13.10;99.90;;;;;;5012072;28;21793;-56
2022/05/25 06:56:00;;;;;;;22.37;18.83;;;13.00;99.90;;;;;;5011017;28;20744;-53
2022/05/25 06:58:27;;;;;;;28.77;18.97;;;12.80;99.90;;;;;;5018435;28;20886;-54
2022/05/25 07:00:54;;;;;;;24.10;18.77;;;12.90;99.90;;;;;;5013279;28;20733;-53
2022/05/25 07:03:21;;;;;;;21.97;18.67;;;13.10;99.90;;;;;;5014999;28;20658;-54
2022/05/25 07:05:48;;;;;;;24.50;19.97;;;13.20;99.90;;;;;;5014421;28;20265;-53
2022/05/25 07:08:15;;;;;;;20.53;16.87;;;13.30;99.90;;;;;;5016411;28;20609;-53
2022/05/25 07:10:45;;;;;;;24.37;18.87;;;13.20;99.90;;;;;;5018506;28;20321;-53
2022/05/25 07:13:13;;;;;;;26.60;19.07;;;13.20;99.90;;;;;;5025506;28;20858;-54
2022/05/25 07:15:40;;;;;;;25.37;19.53;;;13.00;99.90;;;;;;5010553;28;20232;-52
2022/05/25 07:18:07;;;;;;;29.17;20.53;;;13.00;99.90;;;;;;5021506;28;20670;-54
2022/05/25 07:20:34;;;;;;;28.90;20.37;;;12.90;99.90;;;;;;5018835;28;20238;-53
2022/05/25 07:23:02;;;;;;;27.77;21.13;;;12.90;99.90;;;;;;5019385;28;20256;-53
2022/05/25 07:25:29;;;;;;;33.07;21.87;;;12.80;99.90;;;;;;5010206;28;20261;-52
2022/05/25 07:27:56;;;;;;;25.63;21.13;;;12.80;99.90;;;;;;5017131;28;20302;-53
2022/05/25 07:30:23;;;;;;;31.50;21.50;;;12.70;99.90;;;;;;5018897;28;20211;-54
2022/05/25 07:32:50;;;;;;;31.77;23.13;;;12.90;99.90;;;;;;5016549;28;20199;-53
2022/05/25 07:35:17;;;;;;;30.53;24.20;;;13.10;99.90;;;;;;5012014;28;20601;-52
2022/05/25 07:37:50;;;;;;;34.40;24.80;;;12.90;99.90;;;;;;5021128;28;20681;-53
2022/05/25 07:40:25;;;;;;;35.93;24.13;;;13.00;99.90;;;;;;5025075;28;20205;-53
2022/05/25 07:42:56;;;;;;;31.70;24.40;;;13.00;99.90;;;;;;5023343;28;20504;-53
2022/05/25 07:45:24;;;;;;;32.93;23.83;;;13.30;99.90;;;;;;5011744;28;20206;-53
2022/05/25 07:47:53;;;;;;;30.07;24.50;;;13.40;99.90;;;;;;5017368;28;20723;-54
2022/05/25 07:50:23;;;;;;;33.97;24.20;;;13.40;99.90;;;;;;5026911;28;20208;-56
2022/05/25 07:52:54;;;;;;;29.00;21.47;;;13.70;99.90;;;;;;5022670;28;20224;-54
2022/05/25 07:55:20;;;;;;;29.97;21.63;;;13.90;99.90;;;;;;5025039;28;20236;-53
2022/05/25 07:57:48;;;;;;;33.97;23.10;;;13.90;99.90;;;;;;5019064;28;20292;-53
2022/05/25 08:00:16;;;;;;;29.33;21.87;;;13.80;99.90;;;;;;5026233;28;20671;-53
2022/05/25 08:05:49;;;;;;;30.23;22.87;;;14.60;99.90;;;;;;5006148;28;20204;-53
2022/05/25 08:08:20;;;;;;;28.17;22.93;;;15.00;99.90;;;;;;5023668;28;20603;-53
2022/05/25 08:11:04;;;;;;;34.03;25.10;;;14.50;99.90;;;;;;5024349;28;20207;-53
2022/05/25 08:13:35;;;;;;;29.33;23.67;;;14.40;99.90;;;;;;5023553;28;20693;-53
2022/05/25 08:16:08;;;;;;;27.83;23.53;;;14.60;99.90;;;;;;5029317;28;20666;-53
2022/05/25 08:18:36;;;;;;;25.20;22.03;;;14.60;99.90;;;;;;5029818;28;20205;-53
2022/05/25 08:21:04;;;;;;;31.03;23.00;;;14.70;99.90;;;;;;5027763;28;20225;-54
2022/05/25 08:23:31;;;;;;;29.27;23.87;;;15.00;99.90;;;;;;5021537;28;20332;-53
2022/05/25 08:25:58;;;;;;;25.93;21.60;;;15.30;99.90;;;;;;5021579;28;20307;-53
2022/05/25 08:28:24;;;;;;;28.17;22.20;;;15.10;99.90;;;;;;5021650;28;20205;-53
2022/05/25 08:30:52;;;;;;;24.37;21.03;;;15.20;99.90;;;;;;5022631;28;20245;-54
2022/05/25 08:33:21;;;;;;;24.57;20.20;;;15.50;99.90;;;;;;5017899;28;20983;-53
2022/05/25 08:35:48;;;;;;;21.43;18.93;;;15.90;99.90;;;;;;5017873;28;20197;-54
2022/05/25 08:38:15;;;;;;;21.37;19.10;;;16.30;99.90;;;;;;5020340;28;20206;-53
2022/05/25 08:40:45;;;;;;;21.43;18.93;;;16.40;99.90;;;;;;5022168;28;20203;-54
2022/05/25 08:43:40;;;;;;;21.43;18.93;;;16.50;99.90;;;;;;5022888;28;20274;-54
2022/05/25 08:46:14;;;;;;;19.27;16.47;;;16.40;99.90;;;;;;5023606;28;20207;-53
2022/05/25 08:48:42;;;;;;;18.97;15.73;;;16.30;99.90;;;;;;5018937;28;20202;-54
2022/05/25 08:51:31;;;;;;;17.40;14.90;;;16.20;99.90;;;;;;5018892;28;20685;-53
2022/05/25 08:54:00;;;;;;;15.60;14.03;;;16.30;99.90;;;;;;5020704;28;20667;-53
2022/05/25 08:56:37;;;;;;;15.23;13.73;;;16.70;99.90;;;;;;5017374;28;20224;-53
2022/05/25 08:59:15;;;;;;;17.47;12.87;;;16.90;99.90;;;;;;5019343;28;20445;-54
2022/05/25 09:01:43;;;;;;;15.23;12.60;;;16.70;99.90;;;;;;5019842;28;20680;-53
2022/05/25 09:04:19;;;;;;;14.30;11.77;;;17.20;99.90;;;;;;5018799;28;20203;-53
2022/05/25 09:06:50;;;;;;;11.80;10.60;;;17.70;99.90;;;;;;5015877;28;20207;-53
2022/05/25 09:09:40;;;;;;;10.80;8.93;;;18.00;99.90;;;;;;5019432;28;20233;-54
2022/05/25 09:12:21;;;;;;;11.30;8.80;;;17.50;99.90;;;;;;5019707;28;20305;-54
2022/05/25 09:14:56;;;;;;;8.27;7.50;;;16.60;99.90;;;;;;5021838;28;20245;-52
2022/05/25 09:17:47;;;;;;;12.77;7.67;;;17.10;99.90;;;;;;5023304;28;20562;-53
2022/05/25 09:20:19;;;;;;;6.73;6.23;;;17.20;99.90;;;;;;5019537;28;20199;-52
2022/05/25 09:22:51;;;;;;;6.70;5.87;;;17.70;99.90;;;;;;5017778;28;20274;-52
2022/05/25 09:25:19;;;;;;;6.17;5.57;;;17.50;99.90;;;;;;5020880;28;20302;-52
2022/05/25 09:27:57;;;;;;;6.37;5.70;;;17.60;99.90;;;;;;5019663;28;20208;-53
2022/05/25 09:30:24;;;;;;;5.60;4.77;;;17.10;99.90;;;;;;5017779;28;20199;-53
2022/05/25 09:33:01;;;;;;;5.47;4.83;;;17.70;99.90;;;;;;5018995;28;20288;-53
2022/05/25 09:35:38;;;;;;;5.37;4.30;;;17.70;99.90;;;;;;5020326;28;20821;-53
2022/05/25 09:38:11;;;;;;;5.23;3.20;;;17.70;99.90;;;;;;5021131;28;20539;-53
2022/05/25 09:40:38;;;;;;;5.37;3.67;;;17.40;99.90;;;;;;5017469;28;20305;-53
2022/05/25 09:43:09;;;;;;;6.40;3.40;;;17.20;99.90;;;;;;5020205;28;20210;-53
2022/05/25 09:45:43;;;;;;;3.53;3.00;;;17.60;99.90;;;;;;5017002;28;20353;-53
2022/05/25 09:48:18;;;;;;;2.43;2.17;;;17.60;99.90;;;;;;5023270;28;20222;-53
2022/05/25 09:50:49;;;;;;;4.97;2.70;;;17.50;99.90;;;;;;5018103;28;20666;-54
2022/05/25 09:53:20;;;;;;;5.20;2.60;;;17.90;99.90;;;;;;5026622;28;20747;-53
2022/05/25 09:56:16;;;;;;;4.03;2.17;;;18.20;99.90;;;;;;5019400;28;20287;-54
2022/05/25 09:58:49;;;;;;;3.67;2.63;;;18.50;99.90;;;;;;5022335;28;20310;-55
2022/05/25 10:01:31;;;;;;;5.37;2.17;;;18.20;99.90;;;;;;5025358;28;20299;-55
2022/05/25 10:04:01;;;;;;;7.37;2.60;;;17.50;99.90;;;;;;5022143;28;20690;-56
2022/05/25 10:06:49;;;;;;;3.30;2.70;;;17.30;99.90;;;;;;5022870;28;20246;-55
2022/05/25 10:09:23;;;;;;;5.13;3.07;;;17.20;99.90;;;;;;5021005;28;20235;-54
2022/05/25 10:11:56;;;;;;;3.37;3.10;;;17.30;99.90;;;;;;5023486;28;20216;-54
2022/05/25 10:14:24;;;;;;;5.07;3.70;;;17.80;99.90;;;;;;5021356;28;20196;-54
2022/05/25 10:16:54;;;;;;;3.50;3.20;;;18.00;99.90;;;;;;5024868;28;20351;-53
2022/05/25 10:19:22;;;;;;;4.27;3.33;;;17.80;99.90;;;;;;5020212;28;20200;-53
2022/05/25 10:21:58;;;;;;;3.87;3.40;;;17.30;99.90;;;;;;5022046;28;20743;-53
2022/05/25 10:24:35;;;;;;;5.77;3.43;;;17.10;99.90;;;;;;5016690;28;20214;-53
2022/05/25 10:27:04;;;;;;;3.30;3.10;;;17.30;99.90;;;;;;5018597;28;20537;-53
2022/05/25 10:38:27;;;;;;;4.90;2.50;;;18.30;99.90;;;;;;5021784;28;20221;-53
2022/05/25 10:40:56;;;;;;;5.27;2.30;;;18.00;99.90;;;;;;5016878;28;20198;-54
2022/05/25 10:43:30;;;;;;;2.50;2.10;;;17.60;99.90;;;;;;5025455;28;20208;-53
2022/05/25 10:46:02;;;;;;;2.83;1.93;;;17.60;99.90;;;;;;5016413;28;20656;-53
2022/05/25 10:48:48;;;;;;;3.30;2.60;;;17.30;99.90;;;;;;5021262;28;20773;-54
2022/05/25 10:51:30;;;;;;;2.63;2.43;;;17.10;99.90;;;;;;5013570;28;20273;-54
2022/05/25 10:57:09;;;;;;;2.63;1.53;;;17.00;99.90;;;;;;5014983;28;20647;-53
2022/05/25 10:59:58;;;;;;;2.60;1.20;;;17.00;99.90;;;;;;5018288;28;20209;-54
2022/05/25 11:03:03;;;;;;;6.40;1.20;;;17.10;99.90;;;;;;5012396;28;20346;-53
2022/05/25 11:05:55;;;;;;;2.80;1.67;;;16.90;99.90;;;;;;5012867;28;20206;-53
2022/05/25 11:08:35;;;;;;;3.97;1.77;;;17.20;99.90;;;;;;5021867;28;20689;-54
2022/05/25 11:11:17;;;;;;;3.17;1.60;;;17.00;99.90;;;;;;5019022;28;20246;-53
2022/05/25 11:14:09;;;;;;;3.00;1.50;;;17.40;99.90;;;;;;5027266;28;20251;-52
2022/05/25 11:17:00;;;;;;;4.20;1.67;;;17.70;99.90;;;;;;4997965;28;20197;-54
2022/05/25 11:19:32;;;;;;;3.57;1.60;;;17.40;99.90;;;;;;5016049;28;20209;-53
2022/05/25 11:22:05;;;;;;;2.40;1.60;;;17.30;99.90;;;;;;5017965;28;20312;-52
2022/05/25 11:24:51;;;;;;;3.90;1.70;;;17.30;99.90;;;;;;5020774;28;20544;-54
2022/05/25 11:27:34;;;;;;;1.60;1.47;;;17.50;99.90;;;;;;5018757;28;20283;-54
2022/05/25 11:30:39;;;;;;;5.73;1.57;;;18.30;99.90;;;;;;5020228;28;20967;-54
2022/05/25 11:33:24;;;;;;;1.67;1.57;;;18.80;99.90;;;;;;5018812;28;20697;-54
2022/05/25 11:36:37;;;;;;;1.77;1.43;;;18.80;99.90;;;;;;5019936;28;20215;-53
2022/05/25 11:39:42;;;;;;;4.53;1.83;;;18.20;99.90;;;;;;5020443;28;20706;-54
2022/05/25 11:42:30;;;;;;;2.27;2.00;;;18.10;99.90;;;;;;5017159;28;20245;-52
2022/05/25 11:45:15;;;;;;;2.47;1.90;;;18.70;99.50;;;;;;5013907;28;20236;-53
2022/05/25 11:48:11;;;;;;;3.33;1.70;;;19.00;97.70;;;;;;5021678;28;20753;-53
2022/05/25 11:50:52;;;;;;;1.97;1.73;;;19.70;99.90;;;;;;5014275;28;20244;-53
2022/05/25 11:53:45;;;;;;;3.20;1.50;;;19.70;88.50;;;;;;5020491;28;20628;-53
2022/05/25 11:56:30;;;;;;;2.27;1.70;;;20.00;85.70;;;;;;5014348;28;20313;-53
2022/05/25 11:59:00;;;;;;;4.63;1.60;;;20.00;53.80;;;;;;5015605;28;20689;-53
2022/05/25 12:01:53;;;;;;;2.57;1.10;;;20.10;67.90;;;;;;5015373;28;20302;-53
2022/05/25 12:04:32;;;;;;;3.37;1.00;;;20.10;41.60;;;;;;5014974;28;20204;-54
2022/05/25 12:07:20;;;;;;;2.70;0.90;;;19.10;23.20;;;;;;5015919;28;20207;-53
2022/05/25 12:09:56;;;;;;;1.10;0.80;;;18.40;12.70;;;;;;5028743;28;20709;-53
2022/05/25 12:12:32;;;;;;;3.30;1.10;;;18.10;57.50;;;;;;5019391;28;20222;-53
2022/05/25 12:15:11;;;;;;;1.20;0.90;;;18.00;96.60;;;;;;5026795;28;20198;-53
2022/05/25 12:17:53;;;;;;;1.53;1.43;;;17.80;90.80;;;;;;5016361;28;20266;-53
2022/05/25 12:20:32;;;;;;;1.43;0.90;;;17.80;79.70;;;;;;5017984;28;20237;-53
2022/05/25 12:23:05;;;;;;;2.97;1.10;;;17.80;99.90;;;;;;5013035;28;20274;-53
2022/05/25 12:25:35;;;;;;;2.20;1.10;;;17.90;99.90;;;;;;5018722;28;20294;-53
2022/05/25 12:28:04;;;;;;;1.50;0.80;;;18.60;99.90;;;;;;5012140;28;20593;-53
2022/05/25 12:30:35;;;;;;;3.90;0.87;;;19.00;84.00;;;;;;5026709;28;20204;-52
2022/05/25 12:33:05;;;;;;;5.97;1.10;;;18.70;24.40;;;;;;5017392;28;20319;-53
2022/05/25 12:35:35;;;;;;;1.87;0.90;;;18.40;56.70;;;;;;5018290;28;20526;-56
2022/05/25 12:38:06;;;;;;;0.90;0.80;;;18.30;55.30;;;;;;5018775;28;20310;-53
2022/05/25 12:40:43;;;;;;;1.07;0.97;;;18.30;88.10;;;;;;5023547;28;20240;-53
2022/05/25 12:43:34;;;;;;;1.67;1.10;;;18.30;99.90;;;;;;5021883;28;20235;-54
2022/05/25 12:48:56;;;;;;;3.03;1.13;;;17.90;91.50;;;;;;5019590;28;20208;-53
2022/05/25 12:51:38;;;;;;;3.20;1.17;;;17.80;94.40;;;;;;5017522;28;20645;-54
2022/05/25 12:54:23;;;;;;;3.43;1.10;;;17.70;99.90;;;;;;5018952;28;20210;-54
2022/05/25 12:56:52;;;;;;;1.40;1.00;;;17.90;99.90;;;;;;5020225;28;20282;-54
2022/05/25 12:59:45;;;;;;;4.33;0.90;;;17.90;99.90;;;;;;5026803;28;20245;-54
2022/05/25 13:02:18;;;;;;;1.37;0.97;;;18.00;99.90;;;;;;5018393;28;20758;-54
2022/05/25 13:04:59;;;;;;;1.00;0.87;;;18.00;96.40;;;;;;5024107;28;20203;-54
2022/05/25 13:07:45;;;;;;;2.30;0.83;;;17.90;99.90;;;;;;5027491;28;20194;-54
2022/05/25 13:10:20;;;;;;;1.27;0.70;;;17.70;99.90;;;;;;5019481;28;20212;-54
2022/05/25 13:12:50;;;;;;;4.80;1.33;;;17.50;92.40;;;;;;5024183;28;20213;-53
2022/05/25 13:15:20;;;;;;;0.70;0.57;;;17.50;99.90;;;;;;5026889;28;20727;-53
2022/05/25 13:17:50;;;;;;;4.10;0.70;;;17.50;99.90;;;;;;5022383;28;20240;-53
2022/05/25 13:20:50;;;;;;;1.20;0.80;;;17.70;99.90;;;;;;5024889;28;20240;-53
2022/05/25 13:23:54;;;;;;;3.43;0.70;;;17.80;90.30;;;;;;5020630;28;20778;-53
2022/05/25 13:26:49;;;;;;;2.03;0.90;;;18.10;99.90;;;;;;5018736;28;20634;-55
2022/05/25 13:29:21;;;;;;;4.30;1.00;;;18.40;97.30;;;;;;5019140;28;20340;-53
2022/05/25 13:31:55;;;;;;;3.40;1.00;;;18.30;99.90;;;;;;5026486;28;20706;-53
2022/05/25 13:34:22;;;;;;;3.90;1.10;;;18.10;99.90;;;;;;5026923;28;20205;-54
2022/05/25 13:36:57;;;;;;;4.97;1.00;;;18.00;99.80;;;;;;5016848;28;20197;-54
2022/05/25 13:39:26;;;;;;;4.83;0.90;;;17.80;99.90;;;;;;5028535;28;20279;-54
2022/05/25 13:42:01;;;;;;;3.17;1.00;;;17.60;99.90;;;;;;5025884;28;20273;-54
2022/05/25 13:44:36;;;;;;;2.63;0.77;;;17.50;99.90;;;;;;5036883;28;20289;-53
2022/05/25 13:47:03;;;;;;;5.00;1.97;;;17.60;99.90;;;;;;5026428;28;20291;-54